sensor_id;sensor_type;location;lat;lon;timestamp;temperature;humidity
8717;DHT22;4395;48.554;8.820;2022-12-18T00:00:33;-9.40;99.90
8717;DHT22;4395;48.554;8.820;2022-12-18T00:02:37;-9.40;99.90
8717;DHT22;4395;48.554;8.820;2022-12-18T00:04:41;-9.40;99.90
8717;DHT22;4395;48.554;8.820;2022-12-18T00:06:46;-9.50;99.90
8717;DHT22;4395;48.554;8.820;2022-12-18T00:08:49;-9.60;99.90
8717;DHT22;4395;48.554;8.820;2022-12-18T00:10:52;-9.70;99.90
8717;DHT22;4395;48.554;8.820;2022-12-18T00:13:01;-9.80;99.90
8717;DHT22;4395;48.554;8.820;2022-12-18T00:15:10;-9.90;99.90
8717;DHT22;4395;48.554;8.820;2022-12-18T00:17:14;-10.00;99.90
8717;DHT22;4395;48.554;8.820;2022-12-18T00:19:17;-10.00;99.90
8717;DHT22;4395;48.554;8.820;2022-12-18T00:21:21;-10.00;99.90
8717;DHT22;4395;48.554;8.820;2022-12-18T00:23:26;-10.10;99.90
8717;DHT22;4395;48.554;8.820;2022-12-18T00:25:29;-10.30;99.90
8717;DHT22;4395;48.554;8.820;2022-12-18T00:27:32;-10.50;99.90
8717;DHT22;4395;48.554;8.820;2022-12-18T00:29:36;-10.50;99.90
8717;DHT22;4395;48.554;8.820;2022-12-18T00:31:45;-10.20;99.90
8717;DHT22;4395;48.554;8.820;2022-12-18T00:33:49;-10.20;99.90
8717;DHT22;4395;48.554;8.820;2022-12-18T00:36:00;-10.10;99.90
8717;DHT22;4395;48.554;8.820;2022-12-18T00:38:06;-10.20;99.90
8717;DHT22;4395;48.554;8.820;2022-12-18T00:40:12;-10.10;99.90
8717;DHT22;4395;48.554;8.820;2022-12-18T00:42:15;-10.10;99.90
8717;DHT22;4395;48.554;8.820;2022-12-18T00:44:36;-10.00;99.90
8717;DHT22;4395;48.554;8.820;2022-12-18T00:46:40;-10.30;99.90
8717;DHT22;4395;48.554;8.820;2022-12-18T00:48:43;-10.20;99.90
8717;DHT22;4395;48.554;8.820;2022-12-18T00:50:47;-10.30;99.90
8717;DHT22;4395;48.554;8.820;2022-12-18T00:52:51;-10.30;99.90
8717;DHT22;4395;48.554;8.820;2022-12-18T00:54:55;-10.40;99.90
8717;DHT22;4395;48.554;8.820;2022-12-18T00:57:06;-10.50;99.90
8717;DHT22;4395;48.554;8.820;2022-12-18T00:59:10;-10.50;99.90
8717;DHT22;4395;48.554;8.820;2022-12-18T01:01:13;-10.40;99.90
8717;DHT22;4395;48.554;8.820;2022-12-18T01:03:17;-10.40;99.90
8717;DHT22;4395;48.554;8.820;2022-12-18T01:05:21;-10.40;99.90
8717;DHT22;4395;48.554;8.820;2022-12-18T01:07:25;-10.40;99.90
8717;DHT22;4395;48.554;8.820;2022-12-18T01:09:29;-10.30;99.90
8717;DHT22;4395;48.554;8.820;2022-12-18T01:11:32;-10.30;99.90
8717;DHT22;4395;48.554;8.820;2022-12-18T01:13:37;-10.30;99.90
8717;DHT22;4395;48.554;8.820;2022-12-18T01:15:48;-10.10;99.90
8717;DHT22;4395;48.554;8.820;2022-12-18T01:17:52;-10.20;99.90
8717;DHT22;4395;48.554;8.820;2022-12-18T01:19:56;-10.10;99.90
8717;DHT22;4395;48.554;8.820;2022-12-18T01:21:59;-10.10;99.90
8717;DHT22;4395;48.554;8.820;2022-12-18T01:24:03;-10.10;99.90
8717;DHT22;4395;48.554;8.820;2022-12-18T01:26:09;-10.20;99.90
8717;DHT22;4395;48.554;8.820;2022-12-18T01:28:14;-10.20;99.90
8717;DHT22;4395;48.554;8.820;2022-12-18T01:30:19;-10.20;99.90
8717;DHT22;4395;48.554;8.820;2022-12-18T01:32:22;-10.10;99.90
8717;DHT22;4395;48.554;8.820;2022-12-18T01:34:26;-10.10;99.90
8717;DHT22;4395;48.554;8.820;2022-12-18T01:36:31;-10.10;99.90
8717;DHT22;4395;48.554;8.820;2022-12-18T01:38:36;-10.10;99.90
8717;DHT22;4395;48.554;8.820;2022-12-18T01:40:39;-10.10;99.90
8717;DHT22;4395;48.554;8.820;2022-12-18T01:42:44;-10.30;99.90
8717;DHT22;4395;48.554;8.820;2022-12-18T01:45:06;-10.40;99.90
8717;DHT22;4395;48.554;8.820;2022-12-18T01:47:15;-10.60;99.90
8717;DHT22;4395;48.554;8.820;2022-12-18T01:49:21;-10.60;99.90
8717;DHT22;4395;48.554;8.820;2022-12-18T01:51:25;-10.50;99.90
8717;DHT22;4395;48.554;8.820;2022-12-18T01:53:30;-10.40;99.90
8717;DHT22;4395;48.554;8.820;2022-12-18T01:55:38;-10.40;99.90
8717;DHT22;4395;48.554;8.820;2022-12-18T01:57:46;-10.20;99.90
8717;DHT22;4395;48.554;8.820;2022-12-18T01:59:53;-10.10;99.90
8717;DHT22;4395;48.554;8.820;2022-12-18T02:01:57;-9.90;99.90
8717;DHT22;4395;48.554;8.820;2022-12-18T02:04:21;-9.80;99.90
8717;DHT22;4395;48.554;8.820;2022-12-18T02:06:29;-9.90;99.90
8717;DHT22;4395;48.554;8.820;2022-12-18T02:08:42;-9.90;99.90
8717;DHT22;4395;48.554;8.820;2022-12-18T02:10:56;-10.00;99.90
8717;DHT22;4395;48.554;8.820;2022-12-18T02:13:11;-10.00;99.90
8717;DHT22;4395;48.554;8.820;2022-12-18T02:15:23;-10.00;99.90
8717;DHT22;4395;48.554;8.820;2022-12-18T02:17:32;-10.00;99.90
8717;DHT22;4395;48.554;8.820;2022-12-18T02:19:47;-9.90;99.90
8717;DHT22;4395;48.554;8.820;2022-12-18T02:22:13;-9.80;99.90
8717;DHT22;4395;48.554;8.820;2022-12-18T02:24:32;-9.70;99.90
8717;DHT22;4395;48.554;8.820;2022-12-18T02:26:43;-9.80;99.90
8717;DHT22;4395;48.554;8.820;2022-12-18T02:28:52;-9.60;99.90
8717;DHT22;4395;48.554;8.820;2022-12-18T02:31:00;-9.90;99.90
8717;DHT22;4395;48.554;8.820;2022-12-18T02:33:07;-10.00;99.90
8717;DHT22;4395;48.554;8.820;2022-12-18T02:35:15;-10.10;99.90
8717;DHT22;4395;48.554;8.820;2022-12-18T02:37:23;-9.70;99.90
8717;DHT22;4395;48.554;8.820;2022-12-18T02:39:29;-9.60;99.90
8717;DHT22;4395;48.554;8.820;2022-12-18T02:41:40;-9.50;99.90
8717;DHT22;4395;48.554;8.820;2022-12-18T02:43:55;-9.60;99.90
8717;DHT22;4395;48.554;8.820;2022-12-18T02:46:01;-9.40;99.90
8717;DHT22;4395;48.554;8.820;2022-12-18T02:48:32;-9.20;99.90
8717;DHT22;4395;48.554;8.820;2022-12-18T02:50:40;-9.10;99.90
8717;DHT22;4395;48.554;8.820;2022-12-18T02:52:56;-9.10;99.90
8717;DHT22;4395;48.554;8.820;2022-12-18T02:55:16;-9.00;99.90
8717;DHT22;4395;48.554;8.820;2022-12-18T02:57:34;-9.00;99.90
8717;DHT22;4395;48.554;8.820;2022-12-18T02:59:44;-8.90;99.90
8717;DHT22;4395;48.554;8.820;2022-12-18T03:01:56;-8.80;99.90
8717;DHT22;4395;48.554;8.820;2022-12-18T03:04:06;-8.90;99.90
8717;DHT22;4395;48.554;8.820;2022-12-18T03:06:15;-8.90;99.90
8717;DHT22;4395;48.554;8.820;2022-12-18T03:08:27;-8.90;99.90
8717;DHT22;4395;48.554;8.820;2022-12-18T03:10:37;-8.80;99.90
8717;DHT22;4395;48.554;8.820;2022-12-18T03:12:47;-8.70;99.90
8717;DHT22;4395;48.554;8.820;2022-12-18T03:14:59;-8.80;99.90
8717;DHT22;4395;48.554;8.820;2022-12-18T03:17:09;-8.70;99.90
8717;DHT22;4395;48.554;8.820;2022-12-18T03:19:22;-8.60;99.90
8717;DHT22;4395;48.554;8.820;2022-12-18T03:21:35;-8.60;99.90
8717;DHT22;4395;48.554;8.820;2022-12-18T03:23:46;-8.60;99.90
8717;DHT22;4395;48.554;8.820;2022-12-18T03:25:57;-8.70;99.90
8717;DHT22;4395;48.554;8.820;2022-12-18T03:28:14;-8.60;99.90
8717;DHT22;4395;48.554;8.820;2022-12-18T03:30:19;-8.50;99.90
8717;DHT22;4395;48.554;8.820;2022-12-18T03:32:27;-8.50;99.90
8717;DHT22;4395;48.554;8.820;2022-12-18T03:34:37;-8.40;99.90
8717;DHT22;4395;48.554;8.820;2022-12-18T03:36:43;-8.40;99.90
8717;DHT22;4395;48.554;8.820;2022-12-18T03:38:48;-8.30;99.90
8717;DHT22;4395;48.554;8.820;2022-12-18T03:40:58;-8.20;99.90
8717;DHT22;4395;48.554;8.820;2022-12-18T03:43:10;-8.20;99.90
8717;DHT22;4395;48.554;8.820;2022-12-18T03:45:22;-8.00;99.90
8717;DHT22;4395;48.554;8.820;2022-12-18T03:47:29;-7.90;99.90
8717;DHT22;4395;48.554;8.820;2022-12-18T03:49:41;-7.80;99.90
8717;DHT22;4395;48.554;8.820;2022-12-18T03:51:52;-7.80;99.90
8717;DHT22;4395;48.554;8.820;2022-12-18T03:54:02;-7.80;99.90
8717;DHT22;4395;48.554;8.820;2022-12-18T03:56:16;-7.70;99.90
8717;DHT22;4395;48.554;8.820;2022-12-18T03:58:24;-7.50;99.90
8717;DHT22;4395;48.554;8.820;2022-12-18T04:00:36;-7.40;99.90
8717;DHT22;4395;48.554;8.820;2022-12-18T04:02:44;-7.60;99.90
8717;DHT22;4395;48.554;8.820;2022-12-18T04:04:58;-7.70;99.90
8717;DHT22;4395;48.554;8.820;2022-12-18T04:07:04;-7.90;99.90
8717;DHT22;4395;48.554;8.820;2022-12-18T04:09:11;-7.90;99.90
8717;DHT22;4395;48.554;8.820;2022-12-18T04:11:25;-7.70;99.90
8717;DHT22;4395;48.554;8.820;2022-12-18T04:13:34;-7.50;99.90
8717;DHT22;4395;48.554;8.820;2022-12-18T04:15:44;-7.50;99.90
8717;DHT22;4395;48.554;8.820;2022-12-18T04:17:50;-7.40;99.90
8717;DHT22;4395;48.554;8.820;2022-12-18T04:19:57;-7.40;99.90
8717;DHT22;4395;48.554;8.820;2022-12-18T04:22:00;-7.40;99.90
8717;DHT22;4395;48.554;8.820;2022-12-18T04:24:09;-7.20;99.90
8717;DHT22;4395;48.554;8.820;2022-12-18T04:26:16;-7.20;99.90
8717;DHT22;4395;48.554;8.820;2022-12-18T04:28:31;-7.10;99.90
8717;DHT22;4395;48.554;8.820;2022-12-18T04:30:34;-7.10;99.90
8717;DHT22;4395;48.554;8.820;2022-12-18T04:32:38;-7.10;99.90
8717;DHT22;4395;48.554;8.820;2022-12-18T04:34:43;-7.10;99.90
8717;DHT22;4395;48.554;8.820;2022-12-18T04:36:46;-6.90;99.90
8717;DHT22;4395;48.554;8.820;2022-12-18T04:38:50;-6.90;99.90
8717;DHT22;4395;48.554;8.820;2022-12-18T04:40:55;-6.80;99.90
8717;DHT22;4395;48.554;8.820;2022-12-18T04:43:00;-6.80;99.90
8717;DHT22;4395;48.554;8.820;2022-12-18T04:45:07;-6.90;99.90
8717;DHT22;4395;48.554;8.820;2022-12-18T04:47:11;-7.20;99.90
8717;DHT22;4395;48.554;8.820;2022-12-18T04:49:15;-7.40;99.90
8717;DHT22;4395;48.554;8.820;2022-12-18T04:51:18;-7.90;99.90
8717;DHT22;4395;48.554;8.820;2022-12-18T04:53:30;-8.00;99.90
8717;DHT22;4395;48.554;8.820;2022-12-18T04:55:36;-8.10;99.90
8717;DHT22;4395;48.554;8.820;2022-12-18T04:57:39;-8.30;99.90
8717;DHT22;4395;48.554;8.820;2022-12-18T04:59:42;-8.50;99.90
8717;DHT22;4395;48.554;8.820;2022-12-18T05:01:47;-8.60;99.90
8717;DHT22;4395;48.554;8.820;2022-12-18T05:03:51;-8.90;99.90
8717;DHT22;4395;48.554;8.820;2022-12-18T05:05:54;-8.80;99.90
8717;DHT22;4395;48.554;8.820;2022-12-18T05:07:58;-8.90;99.90
8717;DHT22;4395;48.554;8.820;2022-12-18T05:10:01;-8.90;99.90
8717;DHT22;4395;48.554;8.820;2022-12-18T05:12:08;-9.10;99.90
8717;DHT22;4395;48.554;8.820;2022-12-18T05:14:12;-9.10;99.90
8717;DHT22;4395;48.554;8.820;2022-12-18T05:16:15;-9.10;99.90
8717;DHT22;4395;48.554;8.820;2022-12-18T05:18:20;-9.00;99.90
8717;DHT22;4395;48.554;8.820;2022-12-18T05:20:24;-8.90;99.90
8717;DHT22;4395;48.554;8.820;2022-12-18T05:22:28;-8.80;99.90
8717;DHT22;4395;48.554;8.820;2022-12-18T05:24:32;-8.70;99.90
8717;DHT22;4395;48.554;8.820;2022-12-18T05:26:35;-8.60;99.90
8717;DHT22;4395;48.554;8.820;2022-12-18T05:28:39;-8.70;99.90
8717;DHT22;4395;48.554;8.820;2022-12-18T05:30:42;-8.70;99.90
8717;DHT22;4395;48.554;8.820;2022-12-18T05:32:46;-8.60;99.90
8717;DHT22;4395;48.554;8.820;2022-12-18T05:34:50;-8.50;99.90
8717;DHT22;4395;48.554;8.820;2022-12-18T05:36:54;-8.50;99.90
8717;DHT22;4395;48.554;8.820;2022-12-18T05:38:57;-8.40;99.90
8717;DHT22;4395;48.554;8.820;2022-12-18T05:41:02;-8.30;99.90
8717;DHT22;4395;48.554;8.820;2022-12-18T05:43:06;-8.30;99.90
8717;DHT22;4395;48.554;8.820;2022-12-18T05:45:12;-8.30;99.90
8717;DHT22;4395;48.554;8.820;2022-12-18T05:47:15;-8.20;99.90
8717;DHT22;4395;48.554;8.820;2022-12-18T05:49:19;-8.10;99.90
8717;DHT22;4395;48.554;8.820;2022-12-18T05:51:24;-8.00;99.90
8717;DHT22;4395;48.554;8.820;2022-12-18T05:53:27;-8.10;99.90
8717;DHT22;4395;48.554;8.820;2022-12-18T05:55:33;-8.00;99.90
8717;DHT22;4395;48.554;8.820;2022-12-18T05:57:36;-8.00;99.90
8717;DHT22;4395;48.554;8.820;2022-12-18T05:59:40;-7.90;99.90
8717;DHT22;4395;48.554;8.820;2022-12-18T06:01:43;-8.00;99.90
8717;DHT22;4395;48.554;8.820;2022-12-18T06:03:46;-8.00;99.90
8717;DHT22;4395;48.554;8.820;2022-12-18T06:05:51;-8.00;99.90
8717;DHT22;4395;48.554;8.820;2022-12-18T06:07:55;-8.20;99.90
8717;DHT22;4395;48.554;8.820;2022-12-18T06:09:59;-8.20;99.90
8717;DHT22;4395;48.554;8.820;2022-12-18T06:12:02;-8.20;99.90
8717;DHT22;4395;48.554;8.820;2022-12-18T06:14:06;-8.30;99.90
8717;DHT22;4395;48.554;8.820;2022-12-18T06:16:10;-8.50;99.90
8717;DHT22;4395;48.554;8.820;2022-12-18T06:18:13;-8.70;99.90
8717;DHT22;4395;48.554;8.820;2022-12-18T06:20:17;-8.80;99.90
8717;DHT22;4395;48.554;8.820;2022-12-18T06:22:22;-8.90;99.90
8717;DHT22;4395;48.554;8.820;2022-12-18T06:24:27;-9.00;99.90
8717;DHT22;4395;48.554;8.820;2022-12-18T06:26:30;-8.80;99.90
8717;DHT22;4395;48.554;8.820;2022-12-18T06:28:33;-9.30;99.90
8717;DHT22;4395;48.554;8.820;2022-12-18T06:30:37;-9.40;99.90
8717;DHT22;4395;48.554;8.820;2022-12-18T06:32:40;-9.60;99.90
8717;DHT22;4395;48.554;8.820;2022-12-18T06:34:45;-9.70;99.90
8717;DHT22;4395;48.554;8.820;2022-12-18T06:36:48;-9.80;99.90
8717;DHT22;4395;48.554;8.820;2022-12-18T06:38:51;-9.80;99.90
8717;DHT22;4395;48.554;8.820;2022-12-18T06:40:56;-9.80;99.90
8717;DHT22;4395;48.554;8.820;2022-12-18T06:42:59;-9.90;99.90
8717;DHT22;4395;48.554;8.820;2022-12-18T06:45:03;-10.00;99.90
8717;DHT22;4395;48.554;8.820;2022-12-18T06:47:07;-10.00;99.90
8717;DHT22;4395;48.554;8.820;2022-12-18T06:49:11;-9.90;99.90
8717;DHT22;4395;48.554;8.820;2022-12-18T06:51:16;-10.00;99.90
8717;DHT22;4395;48.554;8.820;2022-12-18T06:53:20;-10.00;99.90
8717;DHT22;4395;48.554;8.820;2022-12-18T06:55:24;-10.00;99.90
8717;DHT22;4395;48.554;8.820;2022-12-18T06:57:28;-9.90;99.90
8717;DHT22;4395;48.554;8.820;2022-12-18T06:59:32;-9.90;99.90
8717;DHT22;4395;48.554;8.820;2022-12-18T07:01:35;-9.90;99.90
8717;DHT22;4395;48.554;8.820;2022-12-18T07:03:40;-9.80;99.90
8717;DHT22;4395;48.554;8.820;2022-12-18T07:05:44;-9.60;99.90
8717;DHT22;4395;48.554;8.820;2022-12-18T07:07:48;-9.30;99.90
8717;DHT22;4395;48.554;8.820;2022-12-18T07:09:51;-9.20;99.90
8717;DHT22;4395;48.554;8.820;2022-12-18T07:11:54;-9.00;99.90
8717;DHT22;4395;48.554;8.820;2022-12-18T07:14:00;-8.80;99.90
8717;DHT22;4395;48.554;8.820;2022-12-18T07:16:05;-8.70;99.90
8717;DHT22;4395;48.554;8.820;2022-12-18T07:18:19;-8.50;99.90
8717;DHT22;4395;48.554;8.820;2022-12-18T07:20:22;-8.40;99.90
8717;DHT22;4395;48.554;8.820;2022-12-18T07:22:26;-8.30;99.90
8717;DHT22;4395;48.554;8.820;2022-12-18T07:24:29;-8.30;99.90
8717;DHT22;4395;48.554;8.820;2022-12-18T07:26:32;-8.20;99.90
8717;DHT22;4395;48.554;8.820;2022-12-18T07:28:40;-8.20;99.90
8717;DHT22;4395;48.554;8.820;2022-12-18T07:30:45;-8.10;99.90
8717;DHT22;4395;48.554;8.820;2022-12-18T07:32:48;-8.10;99.90
8717;DHT22;4395;48.554;8.820;2022-12-18T07:34:51;-8.00;99.90
8717;DHT22;4395;48.554;8.820;2022-12-18T07:36:55;-7.90;99.90
8717;DHT22;4395;48.554;8.820;2022-12-18T07:38:58;-7.80;99.90
8717;DHT22;4395;48.554;8.820;2022-12-18T07:41:02;-7.80;99.90
8717;DHT22;4395;48.554;8.820;2022-12-18T07:43:07;4.70;99.90
8717;DHT22;4395;48.554;8.820;2022-12-18T07:45:10;1.00;99.90
8717;DHT22;4395;48.554;8.820;2022-12-18T07:47:15;-2.10;99.90
8717;DHT22;4395;48.554;8.820;2022-12-18T07:49:18;-3.80;99.90
8717;DHT22;4395;48.554;8.820;2022-12-18T07:51:21;-4.90;99.90
8717;DHT22;4395;48.554;8.820;2022-12-18T07:53:25;-5.60;99.90
8717;DHT22;4395;48.554;8.820;2022-12-18T07:55:28;-6.10;99.90
8717;DHT22;4395;48.554;8.820;2022-12-18T07:57:52;-6.20;99.90
8717;DHT22;4395;48.554;8.820;2022-12-18T08:00:01;-6.60;99.90
8717;DHT22;4395;48.554;8.820;2022-12-18T08:02:12;-6.60;99.90
8717;DHT22;4395;48.554;8.820;2022-12-18T08:04:17;-6.90;99.90
8717;DHT22;4395;48.554;8.820;2022-12-18T08:06:21;-6.90;99.90
8717;DHT22;4395;48.554;8.820;2022-12-18T08:08:25;-7.10;99.90
8717;DHT22;4395;48.554;8.820;2022-12-18T08:10:28;-7.10;99.90
8717;DHT22;4395;48.554;8.820;2022-12-18T08:12:32;-7.00;99.90
8717;DHT22;4395;48.554;8.820;2022-12-18T08:14:35;-6.90;99.90
8717;DHT22;4395;48.554;8.820;2022-12-18T08:16:39;-6.80;99.90
8717;DHT22;4395;48.554;8.820;2022-12-18T08:18:43;-6.70;99.90
8717;DHT22;4395;48.554;8.820;2022-12-18T08:20:47;-6.60;99.90
8717;DHT22;4395;48.554;8.820;2022-12-18T08:22:50;-6.60;99.90
8717;DHT22;4395;48.554;8.820;2022-12-18T08:24:53;-6.60;99.90
8717;DHT22;4395;48.554;8.820;2022-12-18T08:26:57;-6.70;99.90
8717;DHT22;4395;48.554;8.820;2022-12-18T08:29:20;-6.60;99.90
8717;DHT22;4395;48.554;8.820;2022-12-18T08:31:24;-6.70;99.90
8717;DHT22;4395;48.554;8.820;2022-12-18T08:33:29;-6.70;99.90
8717;DHT22;4395;48.554;8.820;2022-12-18T08:35:36;-6.60;99.90
8717;DHT22;4395;48.554;8.820;2022-12-18T08:37:46;-6.50;99.90
8717;DHT22;4395;48.554;8.820;2022-12-18T08:39:50;-6.50;99.90
8717;DHT22;4395;48.554;8.820;2022-12-18T08:41:53;-6.40;99.90
8717;DHT22;4395;48.554;8.820;2022-12-18T08:44:13;-6.30;99.90
8717;DHT22;4395;48.554;8.820;2022-12-18T08:46:35;-6.20;99.90
8717;DHT22;4395;48.554;8.820;2022-12-18T08:48:40;-6.00;99.90
8717;DHT22;4395;48.554;8.820;2022-12-18T08:50:53;-6.00;99.90
8717;DHT22;4395;48.554;8.820;2022-12-18T08:52:57;-6.00;99.90
8717;DHT22;4395;48.554;8.820;2022-12-18T08:55:01;-5.90;99.90
8717;DHT22;4395;48.554;8.820;2022-12-18T08:57:04;-5.80;99.90
8717;DHT22;4395;48.554;8.820;2022-12-18T08:59:08;-5.70;99.90
8717;DHT22;4395;48.554;8.820;2022-12-18T09:01:21;-5.60;99.90
8717;DHT22;4395;48.554;8.820;2022-12-18T09:03:25;-5.50;99.90
8717;DHT22;4395;48.554;8.820;2022-12-18T09:05:28;-5.30;99.90
8717;DHT22;4395;48.554;8.820;2022-12-18T09:07:34;-5.10;99.90
8717;DHT22;4395;48.554;8.820;2022-12-18T09:09:37;-5.00;99.90
8717;DHT22;4395;48.554;8.820;2022-12-18T09:11:41;-5.00;99.90
8717;DHT22;4395;48.554;8.820;2022-12-18T09:13:44;-4.90;99.90
8717;DHT22;4395;48.554;8.820;2022-12-18T09:15:50;-4.80;99.90
8717;DHT22;4395;48.554;8.820;2022-12-18T09:17:56;-4.70;99.90
8717;DHT22;4395;48.554;8.820;2022-12-18T09:20:02;-4.60;99.90
8717;DHT22;4395;48.554;8.820;2022-12-18T09:22:06;-4.80;99.90
8717;DHT22;4395;48.554;8.820;2022-12-18T09:24:12;-4.90;99.90
8717;DHT22;4395;48.554;8.820;2022-12-18T09:26:16;-4.90;99.90
8717;DHT22;4395;48.554;8.820;2022-12-18T09:28:19;-4.90;99.90
8717;DHT22;4395;48.554;8.820;2022-12-18T09:30:22;-4.80;99.90
8717;DHT22;4395;48.554;8.820;2022-12-18T09:32:26;-4.50;99.90
8717;DHT22;4395;48.554;8.820;2022-12-18T09:34:29;-4.50;99.90
8717;DHT22;4395;48.554;8.820;2022-12-18T09:36:32;-4.40;99.90
8717;DHT22;4395;48.554;8.820;2022-12-18T09:38:36;-4.30;99.90
8717;DHT22;4395;48.554;8.820;2022-12-18T09:40:44;-4.40;99.90
8717;DHT22;4395;48.554;8.820;2022-12-18T09:42:55;-4.30;99.90
8717;DHT22;4395;48.554;8.820;2022-12-18T09:45:01;-4.30;99.90
8717;DHT22;4395;48.554;8.820;2022-12-18T09:47:10;-4.40;99.90
8717;DHT22;4395;48.554;8.820;2022-12-18T09:49:20;-4.10;99.90
8717;DHT22;4395;48.554;8.820;2022-12-18T09:51:28;-4.00;99.90
8717;DHT22;4395;48.554;8.820;2022-12-18T09:53:37;-3.90;99.90
8717;DHT22;4395;48.554;8.820;2022-12-18T09:55:45;-4.10;99.90
8717;DHT22;4395;48.554;8.820;2022-12-18T09:57:52;-3.80;99.90
8717;DHT22;4395;48.554;8.820;2022-12-18T10:00:03;-3.80;99.90
8717;DHT22;4395;48.554;8.820;2022-12-18T10:02:14;-3.70;99.90
8717;DHT22;4395;48.554;8.820;2022-12-18T10:04:19;-3.50;99.90
8717;DHT22;4395;48.554;8.820;2022-12-18T10:06:27;-3.50;99.90
8717;DHT22;4395;48.554;8.820;2022-12-18T10:08:42;-3.50;99.90
8717;DHT22;4395;48.554;8.820;2022-12-18T10:10:53;-3.30;99.90
8717;DHT22;4395;48.554;8.820;2022-12-18T10:13:02;-3.20;99.90
8717;DHT22;4395;48.554;8.820;2022-12-18T10:15:13;-2.90;99.90
8717;DHT22;4395;48.554;8.820;2022-12-18T10:17:24;-2.70;99.90
8717;DHT22;4395;48.554;8.820;2022-12-18T10:19:39;-2.60;99.90
8717;DHT22;4395;48.554;8.820;2022-12-18T10:21:58;-2.50;99.90
8717;DHT22;4395;48.554;8.820;2022-12-18T10:24:14;-2.50;99.90
8717;DHT22;4395;48.554;8.820;2022-12-18T10:26:24;-2.50;99.90
8717;DHT22;4395;48.554;8.820;2022-12-18T10:28:29;-2.40;99.90
8717;DHT22;4395;48.554;8.820;2022-12-18T10:30:33;-2.40;99.90
8717;DHT22;4395;48.554;8.820;2022-12-18T10:32:36;-2.30;99.90
8717;DHT22;4395;48.554;8.820;2022-12-18T10:34:40;-2.10;99.90
8717;DHT22;4395;48.554;8.820;2022-12-18T10:36:43;-2.10;99.90
8717;DHT22;4395;48.554;8.820;2022-12-18T10:38:46;-2.20;99.90
8717;DHT22;4395;48.554;8.820;2022-12-18T10:40:52;-2.10;99.90
8717;DHT22;4395;48.554;8.820;2022-12-18T10:43:12;-2.00;99.90
8717;DHT22;4395;48.554;8.820;2022-12-18T10:45:17;-1.90;99.90
8717;DHT22;4395;48.554;8.820;2022-12-18T10:47:20;-1.80;99.90
8717;DHT22;4395;48.554;8.820;2022-12-18T10:49:26;-1.50;99.90
8717;DHT22;4395;48.554;8.820;2022-12-18T10:51:32;-1.50;99.90
8717;DHT22;4395;48.554;8.820;2022-12-18T10:53:37;-1.40;99.90
8717;DHT22;4395;48.554;8.820;2022-12-18T10:55:46;-1.40;99.90
8717;DHT22;4395;48.554;8.820;2022-12-18T10:57:49;-1.40;99.90
8717;DHT22;4395;48.554;8.820;2022-12-18T10:59:57;-1.50;99.90
8717;DHT22;4395;48.554;8.820;2022-12-18T11:02:01;-1.50;99.90
8717;DHT22;4395;48.554;8.820;2022-12-18T11:04:08;-1.40;99.90
8717;DHT22;4395;48.554;8.820;2022-12-18T11:06:14;-1.30;99.90
8717;DHT22;4395;48.554;8.820;2022-12-18T11:08:20;-1.30;99.90
8717;DHT22;4395;48.554;8.820;2022-12-18T11:10:29;-1.10;99.90
8717;DHT22;4395;48.554;8.820;2022-12-18T11:12:34;-1.00;99.90
8717;DHT22;4395;48.554;8.820;2022-12-18T11:14:43;-1.00;99.90
8717;DHT22;4395;48.554;8.820;2022-12-18T11:16:51;-1.00;99.90
8717;DHT22;4395;48.554;8.820;2022-12-18T11:19:21;-0.80;99.90
8717;DHT22;4395;48.554;8.820;2022-12-18T11:21:29;-0.70;99.90
8717;DHT22;4395;48.554;8.820;2022-12-18T11:23:33;-0.80;99.90
8717;DHT22;4395;48.554;8.820;2022-12-18T11:25:38;-0.60;99.90
8717;DHT22;4395;48.554;8.820;2022-12-18T11:27:48;-0.50;99.90
8717;DHT22;4395;48.554;8.820;2022-12-18T11:29:52;-0.50;99.90
8717;DHT22;4395;48.554;8.820;2022-12-18T11:32:30;-0.60;99.90
8717;DHT22;4395;48.554;8.820;2022-12-18T11:34:35;-0.30;99.90
8717;DHT22;4395;48.554;8.820;2022-12-18T11:36:43;-0.20;99.90
8717;DHT22;4395;48.554;8.820;2022-12-18T11:38:49;-0.20;99.90
8717;DHT22;4395;48.554;8.820;2022-12-18T11:40:58;-0.20;99.90
8717;DHT22;4395;48.554;8.820;2022-12-18T11:43:08;-0.10;99.90
8717;DHT22;4395;48.554;8.820;2022-12-18T11:45:24;0.10;99.90
8717;DHT22;4395;48.554;8.820;2022-12-18T11:47:38;0.00;99.90
8717;DHT22;4395;48.554;8.820;2022-12-18T11:49:47;0.10;99.90
8717;DHT22;4395;48.554;8.820;2022-12-18T11:51:57;0.30;99.90
8717;DHT22;4395;48.554;8.820;2022-12-18T11:54:10;0.40;99.90
8717;DHT22;4395;48.554;8.820;2022-12-18T11:56:28;0.30;99.90
8717;DHT22;4395;48.554;8.820;2022-12-18T11:58:44;0.20;99.90
8717;DHT22;4395;48.554;8.820;2022-12-18T12:00:53;0.40;99.90
8717;DHT22;4395;48.554;8.820;2022-12-18T12:03:24;0.10;99.90
8717;DHT22;4395;48.554;8.820;2022-12-18T12:05:51;-0.10;99.90
8717;DHT22;4395;48.554;8.820;2022-12-18T12:08:06;-0.10;99.90
8717;DHT22;4395;48.554;8.820;2022-12-18T12:10:26;-0.30;99.90
8717;DHT22;4395;48.554;8.820;2022-12-18T12:12:45;11.50;99.90
8717;DHT22;4395;48.554;8.820;2022-12-18T12:15:06;7.50;99.90
8717;DHT22;4395;48.554;8.820;2022-12-18T12:17:25;3.60;99.90
8717;DHT22;4395;48.554;8.820;2022-12-18T12:19:43;2.10;99.90
8717;DHT22;4395;48.554;8.820;2022-12-18T12:21:55;1.40;99.90
8717;DHT22;4395;48.554;8.820;2022-12-18T12:24:06;1.00;99.90
8717;DHT22;4395;48.554;8.820;2022-12-18T12:26:20;0.80;99.90
8717;DHT22;4395;48.554;8.820;2022-12-18T12:28:40;0.60;99.90
8717;DHT22;4395;48.554;8.820;2022-12-18T12:31:06;0.50;99.90
8717;DHT22;4395;48.554;8.820;2022-12-18T12:33:29;0.40;99.90
8717;DHT22;4395;48.554;8.820;2022-12-18T12:35:46;0.10;99.90
8717;DHT22;4395;48.554;8.820;2022-12-18T12:38:03;0.10;99.90
8717;DHT22;4395;48.554;8.820;2022-12-18T12:40:13;0.20;99.90
8717;DHT22;4395;48.554;8.820;2022-12-18T12:42:40;0.20;99.90
8717;DHT22;4395;48.554;8.820;2022-12-18T12:45:06;0.00;99.90
8717;DHT22;4395;48.554;8.820;2022-12-18T12:47:15;0.00;99.90
8717;DHT22;4395;48.554;8.820;2022-12-18T12:49:21;0.10;99.90
8717;DHT22;4395;48.554;8.820;2022-12-18T12:51:33;0.40;99.90
8717;DHT22;4395;48.554;8.820;2022-12-18T12:53:39;0.60;99.90
8717;DHT22;4395;48.554;8.820;2022-12-18T12:55:43;0.50;99.90
8717;DHT22;4395;48.554;8.820;2022-12-18T12:57:54;0.50;99.90
8717;DHT22;4395;48.554;8.820;2022-12-18T13:00:04;0.40;99.90
8717;DHT22;4395;48.554;8.820;2022-12-18T13:02:18;0.30;99.90
8717;DHT22;4395;48.554;8.820;2022-12-18T13:04:32;0.40;99.90
8717;DHT22;4395;48.554;8.820;2022-12-18T13:06:44;1.20;99.90
8717;DHT22;4395;48.554;8.820;2022-12-18T13:08:55;0.90;99.90
8717;DHT22;4395;48.554;8.820;2022-12-18T13:11:00;0.70;99.90
8717;DHT22;4395;48.554;8.820;2022-12-18T13:13:17;0.50;99.90
8717;DHT22;4395;48.554;8.820;2022-12-18T13:15:29;0.50;99.90
8717;DHT22;4395;48.554;8.820;2022-12-18T13:17:40;0.40;99.90
8717;DHT22;4395;48.554;8.820;2022-12-18T13:19:43;0.00;99.90
8717;DHT22;4395;48.554;8.820;2022-12-18T13:21:53;-0.10;99.90
8717;DHT22;4395;48.554;8.820;2022-12-18T13:24:14;-0.10;99.90
8717;DHT22;4395;48.554;8.820;2022-12-18T13:26:30;-0.30;99.90
8717;DHT22;4395;48.554;8.820;2022-12-18T13:28:51;-0.50;99.90
8717;DHT22;4395;48.554;8.820;2022-12-18T13:30:56;-0.70;99.90
8717;DHT22;4395;48.554;8.820;2022-12-18T13:36:23;-0.70;99.90
8717;DHT22;4395;48.554;8.820;2022-12-18T13:38:35;-0.80;99.90
8717;DHT22;4395;48.554;8.820;2022-12-18T13:40:55;-0.80;99.90
8717;DHT22;4395;48.554;8.820;2022-12-18T13:42:59;-0.80;99.90
8717;DHT22;4395;48.554;8.820;2022-12-18T13:45:38;-0.80;99.90
8717;DHT22;4395;48.554;8.820;2022-12-18T13:47:48;-0.80;99.90
8717;DHT22;4395;48.554;8.820;2022-12-18T13:49:53;-0.70;99.90
8717;DHT22;4395;48.554;8.820;2022-12-18T13:51:56;-0.70;99.90
8717;DHT22;4395;48.554;8.820;2022-12-18T13:54:04;-0.80;99.90
8717;DHT22;4395;48.554;8.820;2022-12-18T13:56:16;-0.70;99.90